Weather reports worldwide

Advertisment
Ell, Netherlands (6377): temperature & dewpoint: 27.05.2020 23:00:00 - 02.06.2020 23:00:00 (CEST)Ell, Netherlands (6377): temperature 5cm: 27.05.2020 23:00:00 - 02.06.2020 23:00:00 (CEST)Ell, Netherlands (6377): wind speed & gusts: 27.05.2020 23:00:00 - 02.06.2020 23:00:00 (CEST)Ell, Netherlands (6377): wind direction: 27.05.2020 23:00:00 - 02.06.2020 23:00:00 (CEST)Ell, Netherlands (6377): visibility: 27.05.2020 23:00:00 - 02.06.2020 23:00:00 (CEST)Ell, Netherlands (6377): precipitation: 27.05.2020 23:00:00 - 02.06.2020 23:00:00 (CEST)
Date & Time tt [°C] td [°C] tt 5cm [°C] ff [km/h] ff [kn] fx [km/h] fx [kn] dd vv [km] rr [mm]
02.06.2020 23:00:00 - - - - - - - - - -
02.06.2020 22:00:00 20,8 8,1 19,5 11 6 25 14 WNW 75 0,0
02.06.2020 21:00:00 23,2 8,3 22,3 22 12 32 18 WNW 22 0,0
02.06.2020 20:00:00 24,5 10,4 24,8 18 10 32 18 WNW 64 0,0
02.06.2020 19:00:00 26,4 12,9 26,6 4 2 7 4 NNE 73 0,0
02.06.2020 18:00:00 28,3 11,3 30,0 0 0 7 4 N 74 0,0
02.06.2020 17:00:00 27,5 9,2 30,9 4 2 11 6 NW 71 0,0
02.06.2020 16:00:00 27,9 8,2 31,4 4 2 11 6 NE 75 0,0
02.06.2020 15:00:00 27,2 11,7 31,8 4 2 11 6 NNE 74 0,0
02.06.2020 14:00:00 27,3 9,9 31,9 4 2 11 6 SE 31 0,0
02.06.2020 13:00:00 26,4 11,4 30,4 4 2 14 8 ESE 74 0,0
02.06.2020 12:00:00 25,5 10,6 29,3 4 2 11 6 ENE 75 0,0
02.06.2020 11:00:00 24,1 11,0 28,3 4 2 7 4 ESE 75 0,0
02.06.2020 10:00:00 22,1 10,2 25,4 4 2 7 4 E 70 0,0
02.06.2020 09:00:00 19,4 10,1 21,4 4 2 7 4 ESE 63 0,0
02.06.2020 08:00:00 16,7 10,9 17,3 4 2 4 2 NE 34 0,0
02.06.2020 07:00:00 12,6 10,4 11,6 4 2 4 2 N 32 0,0
02.06.2020 06:00:00 9,6 8,4 5,7 0 0 4 2 N 28 0,0
02.06.2020 05:00:00 10,1 8,3 5,8 0 0 4 2 N 41 0,0
02.06.2020 04:00:00 11,2 8,2 6,9 0 0 4 2 N 46 0,0
02.06.2020 03:00:00 12,6 8,6 8,6 4 2 11 6 E 51 0,0
02.06.2020 02:00:00 15,7 8,3 12,2 11 6 14 8 ENE 75 0,0
02.06.2020 01:00:00 16,2 8,5 11,3 11 6 14 8 NE 70 0,0
02.06.2020 00:00:00 15,0 6,8 10,6 4 2 14 8 NNE 38 0,0
01.06.2020 23:00:00 17,9 5,8 13,1 7 4 11 6 NNW 43 0,0
01.06.2020 22:00:00 18,8 5,6 14,4 7 4 14 8 N 46 0,0
01.06.2020 21:00:00 20,0 7,2 17,8 11 6 18 10 N 74 0,0
01.06.2020 20:00:00 21,6 8,2 20,5 11 6 18 10 N 74 0,0
01.06.2020 19:00:00 23,4 7,9 23,8 14 8 25 14 NE 75 0,0
01.06.2020 18:00:00 24,5 10,5 27,4 7 4 25 14 NNE 75 0,0
01.06.2020 17:00:00 24,6 9,0 27,2 11 6 22 12 E 75 0,0
01.06.2020 16:00:00 24,6 8,5 28,2 7 4 25 14 E 75 0,0
01.06.2020 15:00:00 23,9 10,4 28,4 7 4 25 14 NNE 75 0,0
01.06.2020 14:00:00 23,6 11,0 27,1 14 8 32 18 NE 74 0,0
01.06.2020 13:00:00 22,4 9,2 25,6 14 8 29 16 NE 75 0,0
01.06.2020 12:00:00 21,6 9,7 25,2 14 8 25 14 NNE 74 0,0
01.06.2020 11:00:00 20,9 10,4 24,1 14 8 25 14 NE 75 0,0
01.06.2020 10:00:00 19,6 10,5 22,2 11 6 18 10 ENE 69 0,0
01.06.2020 09:00:00 17,5 10,7 19,4 7 4 14 8 NE 53 0,0
01.06.2020 08:00:00 15,5 10,2 15,9 7 4 14 8 NE 53 0,0
01.06.2020 07:00:00 12,9 8,7 12,1 7 4 11 6 NE 70 0,0
01.06.2020 06:00:00 10,5 7,3 7,0 11 6 14 8 NE 52 0,0
01.06.2020 05:00:00 9,7 6,9 5,5 7 4 7 4 NE 42 0,0
01.06.2020 04:00:00 10,8 7,2 7,0 7 4 11 6 NE 73 0,0
01.06.2020 03:00:00 12,3 7,2 8,1 7 4 11 6 NE 64 0,0
01.06.2020 02:00:00 12,7 7,3 8,7 7 4 11 6 ENE 61 0,0
01.06.2020 01:00:00 12,9 7,3 9,2 7 4 14 8 ENE 65 0,0
01.06.2020 00:00:00 13,4 7,0 8,4 11 6 14 8 NE 75 0,0
31.05.2020 23:00:00 13,8 6,8 7,5 4 2 7 4 NNE 68 0,0
31.05.2020 22:00:00 15,3 7,0 10,9 7 4 22 12 NNE 75 0,0
31.05.2020 21:00:00 17,2 7,0 15,9 11 6 29 16 NE 75 0,0
31.05.2020 20:00:00 19,0 6,7 18,7 18 10 32 18 NE 75 0,0
31.05.2020 19:00:00 19,7 6,1 20,1 22 12 32 18 NE 75 0,0
31.05.2020 18:00:00 20,3 7,1 21,3 18 10 29 16 ENE 75 0,0
31.05.2020 17:00:00 20,3 7,5 22,6 18 10 32 18 NE 75 0,0
31.05.2020 16:00:00 20,3 7,8 22,8 18 10 36 19 ENE 75 0,0
31.05.2020 15:00:00 19,7 6,5 22,8 22 12 40 21 NE 75 0,0
31.05.2020 14:00:00 19,1 5,7 21,9 18 10 43 23 ENE 74 0,0
31.05.2020 13:00:00 18,6 5,5 21,5 22 12 36 19 E 74 0,0
31.05.2020 12:00:00 17,5 6,8 20,1 22 12 36 19 NE 75 0,0
31.05.2020 11:00:00 17,0 4,3 18,6 22 12 36 19 NE 75 0,0
31.05.2020 10:00:00 16,4 6,7 18,6 18 10 29 16 NE 74 0,0
31.05.2020 09:00:00 15,7 7,5 16,4 11 6 25 14 ENE 71 0,0
31.05.2020 08:00:00 13,8 6,8 14,0 14 8 25 14 NE 75 0,0
31.05.2020 07:00:00 11,8 6,5 10,2 11 6 18 10 NE 74 0,0
31.05.2020 06:00:00 9,2 5,4 4,1 7 4 11 6 NNE 71 0,0
31.05.2020 05:00:00 10,0 5,4 6,5 11 6 14 8 NE 70 0,0
31.05.2020 04:00:00 10,5 4,9 4,6 4 2 11 6 NNE 56 0,0
31.05.2020 03:00:00 11,1 5,2 6,6 11 6 14 8 NE 75 0,0
31.05.2020 02:00:00 11,5 5,7 6,0 7 4 11 6 NE 54 0,0
31.05.2020 01:00:00 12,1 5,7 6,8 7 4 11 6 NE 60 0,0
31.05.2020 00:00:00 14,4 6,2 8,7 7 4 14 8 NE 69 0,0
30.05.2020 23:00:00 15,8 5,2 13,0 11 6 18 10 ENE 75 0,0
30.05.2020 22:00:00 16,7 5,2 14,1 7 4 25 14 ENE 73 0,0
30.05.2020 21:00:00 19,4 5,0 18,0 14 8 29 16 ENE 75 0,0
30.05.2020 20:00:00 20,9 3,5 20,2 14 8 29 16 NE 75 0,0
30.05.2020 19:00:00 21,4 5,7 21,7 14 8 29 16 ENE 75 0,0
30.05.2020 18:00:00 21,9 6,7 23,2 18 10 32 18 ENE 73 0,0
30.05.2020 17:00:00 22,3 6,8 23,2 14 8 32 18 ENE 74 0,0
30.05.2020 16:00:00 21,9 7,3 23,4 18 10 29 16 NE 75 0,0
30.05.2020 15:00:00 21,6 6,3 24,4 18 10 32 18 NE 74 0,0
30.05.2020 14:00:00 21,5 7,2 24,4 22 12 36 19 NE 74 0,0
30.05.2020 13:00:00 21,6 8,1 25,7 11 6 29 16 ENE 74 0,0
30.05.2020 12:00:00 20,6 6,2 24,0 18 10 36 19 E 74 0,0
30.05.2020 11:00:00 19,7 7,6 22,3 14 8 25 14 E 75 0,0
30.05.2020 10:00:00 18,7 7,1 20,0 14 8 22 12 E 73 0,0
30.05.2020 09:00:00 17,1 6,7 17,7 11 6 18 10 E 75 0,0
30.05.2020 08:00:00 14,1 7,4 14,0 7 4 14 8 ENE 75 0,0
30.05.2020 07:00:00 11,4 6,4 10,2 7 4 14 8 NE 73 0,0
30.05.2020 06:00:00 9,4 4,9 6,3 7 4 11 6 NE 49 0,0
30.05.2020 05:00:00 9,0 4,7 5,9 11 6 14 8 NE 55 0,0
30.05.2020 04:00:00 9,4 4,7 5,2 11 6 14 8 NE 55 0,0
30.05.2020 03:00:00 10,5 4,9 5,7 7 4 14 8 ENE 63 0,0
30.05.2020 02:00:00 11,6 4,8 8,9 11 6 18 10 NE 62 0,0
30.05.2020 01:00:00 12,4 4,5 8,3 11 6 14 8 NE 67 0,0
30.05.2020 00:00:00 13,6 3,8 9,1 7 4 11 6 NNE 75 0,0
29.05.2020 23:00:00 14,3 4,1 9,6 7 4 11 6 NNE 69 0,0
29.05.2020 22:00:00 15,6 5,0 10,9 7 4 14 8 NNE 61 0,0
29.05.2020 21:00:00 17,7 6,6 15,1 11 6 25 14 NE 34 0,0
29.05.2020 20:00:00 19,6 6,0 16,9 14 8 29 16 ENE 3,1 0,0
29.05.2020 19:00:00 20,7 6,7 21,4 14 8 25 14 ENE 72 0,0
29.05.2020 18:00:00 21,4 5,7 22,4 14 8 29 16 NE 73 0,0
29.05.2020 17:00:00 21,6 9,0 23,4 14 8 25 14 NNE 64 0,0
29.05.2020 16:00:00 21,7 7,5 24,0 11 6 25 14 NNE 58 0,0
29.05.2020 15:00:00 20,6 6,3 24,6 11 6 29 16 E 75 0,0
29.05.2020 14:00:00 20,3 7,1 24,7 11 6 22 12 NE 75 0,0
29.05.2020 13:00:00 19,8 6,2 23,5 4 2 22 12 NNE 75 0,0
29.05.2020 12:00:00 18,5 6,3 22,9 7 4 22 12 NNE 74 0,0
29.05.2020 11:00:00 17,0 8,1 20,7 7 4 14 8 NE 62 0,0
29.05.2020 10:00:00 15,0 7,6 18,0 7 4 14 8 NNE 55 0,0
29.05.2020 09:00:00 12,8 7,5 14,9 7 4 14 8 NE 48 0,0
29.05.2020 08:00:00 10,8 6,5 11,4 11 6 14 8 NE 45 0,0
29.05.2020 07:00:00 8,7 5,6 8,4 7 4 11 6 NE 33 0,0
29.05.2020 06:00:00 6,8 4,8 3,3 4 2 11 6 NNE 31 0,0
29.05.2020 05:00:00 7,4 4,8 5,3 7 4 11 6 NNE 34 0,0
29.05.2020 04:00:00 8,5 5,2 6,2 7 4 14 8 NNE 28 0,0
29.05.2020 03:00:00 9,1 5,6 7,3 11 6 14 8 NNE 21 0,0
29.05.2020 02:00:00 9,8 5,5 8,2 11 6 18 10 NNE 12 0,0
29.05.2020 01:00:00 10,9 4,7 9,2 11 6 22 12 NNE 17 0,0
29.05.2020 00:00:00 12,6 2,9 11,0 14 8 25 14 NNE 65 0,0
28.05.2020 23:00:00 14,0 2,3 12,5 14 8 25 14 NNE 72 0,0
28.05.2020 22:00:00 16,1 2,9 14,4 14 8 25 14 NNE 75 0,0
28.05.2020 21:00:00 16,7 3,5 15,0 14 8 25 14 N 75 0,0
28.05.2020 20:00:00 18,1 5,3 18,0 14 8 29 16 NNE 75 0,0
28.05.2020 19:00:00 19,4 5,6 20,0 14 8 29 16 NNE 75 0,0
28.05.2020 18:00:00 19,6 4,7 20,7 18 10 29 16 NE 75 0,0
28.05.2020 17:00:00 19,7 5,8 21,4 18 10 32 18 NNE 75 0,0
28.05.2020 16:00:00 19,5 5,1 22,4 18 10 32 18 NE 73 0,0
28.05.2020 15:00:00 19,3 6,2 22,4 18 10 32 18 N 75 0,0
28.05.2020 14:00:00 18,6 6,7 22,4 14 8 32 18 NNE 75 0,0
28.05.2020 13:00:00 17,7 7,4 21,2 14 8 29 16 NE 64 0,0
28.05.2020 12:00:00 17,1 7,7 20,5 14 8 29 16 NNE 61 0,0
28.05.2020 11:00:00 16,0 7,1 19,2 18 10 29 16 NNE 60 0,0
28.05.2020 10:00:00 14,0 6,4 16,5 18 10 32 18 NE 65 0,0
28.05.2020 09:00:00 12,6 6,8 14,3 18 10 29 16 NE 40 0,0
28.05.2020 08:00:00 11,0 6,7 11,6 14 8 25 14 NE 34 0,0
28.05.2020 07:00:00 9,5 5,9 9,1 11 6 18 10 NNE 35 0,0
28.05.2020 06:00:00 7,8 4,8 4,5 7 4 14 8 N 41 0,0
28.05.2020 05:00:00 8,4 4,8 6,6 11 6 18 10 N 46 0,0
28.05.2020 04:00:00 9,9 4,8 8,0 11 6 22 12 NNE 37 0,0
28.05.2020 03:00:00 11,0 4,5 9,6 14 8 36 19 N 43 0,0
28.05.2020 02:00:00 13,0 6,3 11,9 14 8 32 18 N 50 0,0
28.05.2020 01:00:00 14,3 8,4 13,3 14 8 29 16 N 50 0,0
28.05.2020 00:00:00 14,4 9,6 12,9 14 8 22 12 N 61 0,0
27.05.2020 23:00:00 15,3 9,9 13,7 11 6 18 10 NNW 71 0,0

tt = temperature
td = dewpoint
tt 5cm = temperature 5cm
ff = wind speed
fx = gusts
dd = wind direction
vv = visibility
rr = precipitation

Next stations